sensor_id;sensor_type;location;lat;lon;timestamp;pressure;altitude;pressure_sealevel;temperature;humidity
46379;BME280;32084;42.254;22.744;2023-05-16T00:01:14;94846.22;;;12.91;100.00
46379;BME280;32084;42.254;22.744;2023-05-16T00:03:41;94836.78;;;12.95;100.00
46379;BME280;32084;42.254;22.744;2023-05-16T00:06:08;94829.97;;;13.07;100.00
46379;BME280;32084;42.254;22.744;2023-05-16T00:08:34;94825.31;;;13.16;100.00
46379;BME280;32084;42.254;22.744;2023-05-16T00:11:00;94823.19;;;12.97;100.00
46379;BME280;32084;42.254;22.744;2023-05-16T00:13:27;94816.44;;;13.01;100.00
46379;BME280;32084;42.254;22.744;2023-05-16T00:15:54;94824.03;;;13.12;100.00
46379;BME280;32084;42.254;22.744;2023-05-16T00:18:21;94823.03;;;13.13;100.00
46379;BME280;32084;42.254;22.744;2023-05-16T00:20:48;94811.09;;;13.16;100.00
46379;BME280;32084;42.254;22.744;2023-05-16T00:23:14;94805.81;;;13.07;100.00
46379;BME280;32084;42.254;22.744;2023-05-16T00:25:40;94798.03;;;12.98;100.00
46379;BME280;32084;42.254;22.744;2023-05-16T00:28:06;94799.59;;;13.07;100.00
46379;BME280;32084;42.254;22.744;2023-05-16T00:30:33;94793.88;;;13.10;100.00
46379;BME280;32084;42.254;22.744;2023-05-16T00:33:00;94791.75;;;13.05;100.00
46379;BME280;32084;42.254;22.744;2023-05-16T00:35:27;94797.38;;;13.11;100.00
46379;BME280;32084;42.254;22.744;2023-05-16T00:37:53;94793.69;;;13.12;100.00
46379;BME280;32084;42.254;22.744;2023-05-16T00:40:19;94797.94;;;13.21;100.00
46379;BME280;32084;42.254;22.744;2023-05-16T00:42:46;94803.78;;;13.24;100.00
46379;BME280;32084;42.254;22.744;2023-05-16T00:45:12;94815.91;;;13.05;100.00
46379;BME280;32084;42.254;22.744;2023-05-16T00:47:38;94808.50;;;13.07;100.00
46379;BME280;32084;42.254;22.744;2023-05-16T00:50:04;94815.34;;;13.10;100.00
46379;BME280;32084;42.254;22.744;2023-05-16T00:52:30;94810.06;;;13.02;100.00
46379;BME280;32084;42.254;22.744;2023-05-16T00:54:58;94807.91;;;12.97;100.00
46379;BME280;32084;42.254;22.744;2023-05-16T00:57:24;94800.28;;;13.09;100.00
46379;BME280;32084;42.254;22.744;2023-05-16T00:59:50;94814.03;;;13.06;100.00
46379;BME280;32084;42.254;22.744;2023-05-16T01:02:17;94801.75;;;13.12;100.00
46379;BME280;32084;42.254;22.744;2023-05-16T01:04:43;94798.75;;;13.06;100.00
46379;BME280;32084;42.254;22.744;2023-05-16T01:07:09;94805.50;;;12.87;100.00
46379;BME280;32084;42.254;22.744;2023-05-16T01:09:35;94790.13;;;12.66;100.00
46379;BME280;32084;42.254;22.744;2023-05-16T01:14:36;94787.47;;;12.81;100.00
46379;BME280;32084;42.254;22.744;2023-05-16T01:17:06;94795.06;;;12.93;100.00
46379;BME280;32084;42.254;22.744;2023-05-16T01:22:40;94792.69;;;12.98;100.00
46379;BME280;32084;42.254;22.744;2023-05-16T01:25:10;94789.06;;;12.91;100.00
46379;BME280;32084;42.254;22.744;2023-05-16T01:27:38;94792.56;;;12.91;100.00
46379;BME280;32084;42.254;22.744;2023-05-16T01:30:11;94782.41;;;12.86;100.00
46379;BME280;32084;42.254;22.744;2023-05-16T01:32:38;94783.81;;;12.59;100.00
46379;BME280;32084;42.254;22.744;2023-05-16T01:35:04;94792.16;;;12.64;100.00
46379;BME280;32084;42.254;22.744;2023-05-16T01:40:35;94776.28;;;12.78;100.00
46379;BME280;32084;42.254;22.744;2023-05-16T01:43:02;94778.31;;;12.91;100.00
46379;BME280;32084;42.254;22.744;2023-05-16T01:45:31;94783.50;;;12.92;100.00
46379;BME280;32084;42.254;22.744;2023-05-16T01:47:59;94776.75;;;12.81;100.00
46379;BME280;32084;42.254;22.744;2023-05-16T01:50:27;94784.69;;;12.75;100.00
46379;BME280;32084;42.254;22.744;2023-05-16T01:56:08;94769.94;;;12.56;100.00
46379;BME280;32084;42.254;22.744;2023-05-16T01:58:09;94768.47;;;12.53;100.00
46379;BME280;32084;42.254;22.744;2023-05-16T02:00:36;94767.94;;;12.58;100.00
46379;BME280;32084;42.254;22.744;2023-05-16T02:03:02;94767.13;;;12.72;100.00
46379;BME280;32084;42.254;22.744;2023-05-16T02:05:28;94754.94;;;12.84;100.00
46379;BME280;32084;42.254;22.744;2023-05-16T02:07:54;94756.69;;;12.92;100.00
46379;BME280;32084;42.254;22.744;2023-05-16T02:10:20;94756.09;;;12.82;100.00
46379;BME280;32084;42.254;22.744;2023-05-16T02:12:47;94755.09;;;12.68;100.00
46379;BME280;32084;42.254;22.744;2023-05-16T02:15:13;94753.41;;;12.67;100.00
46379;BME280;32084;42.254;22.744;2023-05-16T02:17:39;94760.44;;;12.68;100.00
46379;BME280;32084;42.254;22.744;2023-05-16T02:20:05;94751.47;;;12.61;100.00
46379;BME280;32084;42.254;22.744;2023-05-16T02:22:34;94751.00;;;12.57;100.00
46379;BME280;32084;42.254;22.744;2023-05-16T02:25:01;94751.28;;;12.62;100.00
46379;BME280;32084;42.254;22.744;2023-05-16T02:27:28;94751.94;;;12.64;100.00
46379;BME280;32084;42.254;22.744;2023-05-16T02:29:54;94755.72;;;12.55;100.00
46379;BME280;32084;42.254;22.744;2023-05-16T02:32:20;94759.78;;;12.51;100.00
46379;BME280;32084;42.254;22.744;2023-05-16T02:34:46;94757.94;;;12.52;100.00
46379;BME280;32084;42.254;22.744;2023-05-16T02:37:12;94762.28;;;12.53;100.00
46379;BME280;32084;42.254;22.744;2023-05-16T02:39:38;94760.53;;;12.60;100.00
46379;BME280;32084;42.254;22.744;2023-05-16T02:42:05;94759.50;;;12.61;100.00
46379;BME280;32084;42.254;22.744;2023-05-16T02:44:32;94762.03;;;12.62;100.00
46379;BME280;32084;42.254;22.744;2023-05-16T02:46:58;94755.38;;;12.73;100.00
46379;BME280;32084;42.254;22.744;2023-05-16T02:49:24;94748.69;;;12.84;100.00
46379;BME280;32084;42.254;22.744;2023-05-16T02:51:51;94752.13;;;12.78;100.00
46379;BME280;32084;42.254;22.744;2023-05-16T02:54:17;94752.59;;;12.66;100.00
46379;BME280;32084;42.254;22.744;2023-05-16T02:56:43;94755.28;;;12.66;100.00
46379;BME280;32084;42.254;22.744;2023-05-16T02:59:10;94745.00;;;12.70;100.00
46379;BME280;32084;42.254;22.744;2023-05-16T03:01:36;94745.00;;;12.70;100.00
46379;BME280;32084;42.254;22.744;2023-05-16T03:04:02;94750.19;;;12.72;100.00
46379;BME280;32084;42.254;22.744;2023-05-16T03:06:28;94738.16;;;12.82;100.00
46379;BME280;32084;42.254;22.744;2023-05-16T03:08:57;94738.81;;;12.84;100.00
46379;BME280;32084;42.254;22.744;2023-05-16T03:11:23;94743.50;;;12.82;100.00
46379;BME280;32084;42.254;22.744;2023-05-16T03:13:49;94739.00;;;12.83;100.00
46379;BME280;32084;42.254;22.744;2023-05-16T03:16:15;94756.03;;;12.90;100.00
46379;BME280;32084;42.254;22.744;2023-05-16T03:18:42;94755.75;;;12.85;100.00
46379;BME280;32084;42.254;22.744;2023-05-16T03:21:08;94756.66;;;12.77;100.00
46379;BME280;32084;42.254;22.744;2023-05-16T03:23:34;94761.00;;;12.78;100.00
46379;BME280;32084;42.254;22.744;2023-05-16T03:26:00;94766.09;;;12.88;100.00
46379;BME280;32084;42.254;22.744;2023-05-16T03:28:26;94771.94;;;12.92;100.00
46379;BME280;32084;42.254;22.744;2023-05-16T03:30:52;94768.53;;;12.83;100.00
46379;BME280;32084;42.254;22.744;2023-05-16T03:33:18;94777.75;;;12.80;100.00
46379;BME280;32084;42.254;22.744;2023-05-16T03:35:44;94783.88;;;12.89;100.00
46379;BME280;32084;42.254;22.744;2023-05-16T03:38:11;94775.25;;;12.94;100.00
46379;BME280;32084;42.254;22.744;2023-05-16T03:40:37;94772.03;;;12.98;100.00
46379;BME280;32084;42.254;22.744;2023-05-16T03:43:03;94767.84;;;13.11;100.00
46379;BME280;32084;42.254;22.744;2023-05-16T03:45:29;94766.09;;;13.18;100.00
46379;BME280;32084;42.254;22.744;2023-05-16T03:47:56;94763.03;;;13.21;100.00
46379;BME280;32084;42.254;22.744;2023-05-16T03:50:22;94759.44;;;13.14;100.00
46379;BME280;32084;42.254;22.744;2023-05-16T03:52:48;94762.47;;;13.11;100.00
46379;BME280;32084;42.254;22.744;2023-05-16T03:55:14;94765.91;;;13.19;100.00
46379;BME280;32084;42.254;22.744;2023-05-16T03:57:41;94761.75;;;13.17;100.00
46379;BME280;32084;42.254;22.744;2023-05-16T04:00:08;94759.72;;;13.04;100.00
46379;BME280;32084;42.254;22.744;2023-05-16T04:02:36;94747.88;;;12.98;100.00
46379;BME280;32084;42.254;22.744;2023-05-16T04:05:02;94747.59;;;13.08;100.00
46379;BME280;32084;42.254;22.744;2023-05-16T04:07:28;94754.59;;;13.24;100.00
46379;BME280;32084;42.254;22.744;2023-05-16T04:09:54;94755.19;;;13.34;100.00
46379;BME280;32084;42.254;22.744;2023-05-16T04:12:23;94756.94;;;13.42;100.00
46379;BME280;32084;42.254;22.744;2023-05-16T04:14:49;94754.44;;;13.40;100.00
46379;BME280;32084;42.254;22.744;2023-05-16T04:17:15;94754.56;;;13.32;100.00
46379;BME280;32084;42.254;22.744;2023-05-16T04:19:41;94755.91;;;13.28;100.00
46379;BME280;32084;42.254;22.744;2023-05-16T04:22:07;94755.06;;;13.27;100.00
46379;BME280;32084;42.254;22.744;2023-05-16T04:24:33;94752.13;;;13.37;100.00
46379;BME280;32084;42.254;22.744;2023-05-16T04:26:59;94760.31;;;13.51;100.00
46379;BME280;32084;42.254;22.744;2023-05-16T04:29:26;94757.25;;;13.69;100.00
46379;BME280;32084;42.254;22.744;2023-05-16T04:31:52;94753.16;;;13.73;100.00
46379;BME280;32084;42.254;22.744;2023-05-16T04:34:18;94758.53;;;13.73;100.00
46379;BME280;32084;42.254;22.744;2023-05-16T04:36:44;94757.06;;;13.70;100.00
46379;BME280;32084;42.254;22.744;2023-05-16T04:39:10;94758.06;;;13.69;100.00
46379;BME280;32084;42.254;22.744;2023-05-16T04:41:37;94758.25;;;13.67;100.00
46379;BME280;32084;42.254;22.744;2023-05-16T04:44:03;94761.03;;;13.74;100.00
46379;BME280;32084;42.254;22.744;2023-05-16T04:46:29;94755.69;;;13.81;100.00
46379;BME280;32084;42.254;22.744;2023-05-16T04:48:55;94768.59;;;13.85;100.00
46379;BME280;32084;42.254;22.744;2023-05-16T04:51:21;94767.63;;;13.93;100.00
46379;BME280;32084;42.254;22.744;2023-05-16T04:53:47;94770.94;;;13.95;100.00
46379;BME280;32084;42.254;22.744;2023-05-16T04:56:14;94767.63;;;13.93;100.00
46379;BME280;32084;42.254;22.744;2023-05-16T04:58:40;94773.63;;;13.95;100.00
46379;BME280;32084;42.254;22.744;2023-05-16T05:01:06;94767.56;;;14.08;100.00
46379;BME280;32084;42.254;22.744;2023-05-16T05:03:32;94752.47;;;14.07;100.00
46379;BME280;32084;42.254;22.744;2023-05-16T05:05:58;94755.41;;;14.12;100.00
46379;BME280;32084;42.254;22.744;2023-05-16T05:08:25;94750.97;;;14.26;100.00
46379;BME280;32084;42.254;22.744;2023-05-16T05:10:51;94743.09;;;14.46;100.00
46379;BME280;32084;42.254;22.744;2023-05-16T05:13:17;94746.44;;;14.55;100.00
46379;BME280;32084;42.254;22.744;2023-05-16T05:15:43;94745.09;;;14.66;100.00
46379;BME280;32084;42.254;22.744;2023-05-16T05:18:09;94760.25;;;14.67;100.00
46379;BME280;32084;42.254;22.744;2023-05-16T05:20:35;94749.06;;;14.70;100.00
46379;BME280;32084;42.254;22.744;2023-05-16T05:23:01;94756.75;;;14.73;100.00
46379;BME280;32084;42.254;22.744;2023-05-16T05:25:27;94758.72;;;14.86;100.00
46379;BME280;32084;42.254;22.744;2023-05-16T05:27:53;94756.94;;;14.99;100.00
46379;BME280;32084;42.254;22.744;2023-05-16T05:30:19;94761.25;;;14.94;100.00
46379;BME280;32084;42.254;22.744;2023-05-16T05:32:45;94750.84;;;14.84;100.00
46379;BME280;32084;42.254;22.744;2023-05-16T05:35:12;94739.81;;;14.79;100.00
46379;BME280;32084;42.254;22.744;2023-05-16T05:37:38;94730.94;;;14.85;100.00
46379;BME280;32084;42.254;22.744;2023-05-16T05:40:04;94737.94;;;14.73;100.00
46379;BME280;32084;42.254;22.744;2023-05-16T05:42:30;94734.72;;;14.62;100.00
46379;BME280;32084;42.254;22.744;2023-05-16T05:44:56;94727.72;;;14.61;100.00
46379;BME280;32084;42.254;22.744;2023-05-16T05:47:22;94721.72;;;14.66;100.00
46379;BME280;32084;42.254;22.744;2023-05-16T05:49:49;94723.97;;;14.62;100.00
46379;BME280;32084;42.254;22.744;2023-05-16T05:52:15;94720.97;;;14.72;100.00
46379;BME280;32084;42.254;22.744;2023-05-16T05:54:41;94714.72;;;14.72;100.00
46379;BME280;32084;42.254;22.744;2023-05-16T05:57:07;94714.53;;;14.73;100.00
46379;BME280;32084;42.254;22.744;2023-05-16T05:59:34;94720.41;;;14.83;100.00
46379;BME280;32084;42.254;22.744;2023-05-16T06:02:00;94716.19;;;15.09;100.00
46379;BME280;32084;42.254;22.744;2023-05-16T06:04:26;94721.25;;;15.26;100.00
46379;BME280;32084;42.254;22.744;2023-05-16T06:06:52;94725.19;;;15.36;100.00
46379;BME280;32084;42.254;22.744;2023-05-16T06:09:19;94719.50;;;15.59;100.00
46379;BME280;32084;42.254;22.744;2023-05-16T06:11:45;94720.50;;;15.52;100.00
46379;BME280;32084;42.254;22.744;2023-05-16T06:14:13;94720.94;;;15.62;100.00
46379;BME280;32084;42.254;22.744;2023-05-16T06:16:39;94713.09;;;15.67;100.00
46379;BME280;32084;42.254;22.744;2023-05-16T06:19:05;94714.53;;;15.70;100.00
46379;BME280;32084;42.254;22.744;2023-05-16T06:21:31;94715.38;;;15.70;99.27
46379;BME280;32084;42.254;22.744;2023-05-16T06:23:58;94717.31;;;15.83;96.74
46379;BME280;32084;42.254;22.744;2023-05-16T06:26:24;94726.34;;;15.62;98.37
46379;BME280;32084;42.254;22.744;2023-05-16T06:28:50;94728.81;;;15.57;98.86
46379;BME280;32084;42.254;22.744;2023-05-16T06:31:16;94725.47;;;15.55;99.96
46379;BME280;32084;42.254;22.744;2023-05-16T06:33:42;94740.59;;;15.49;100.00
46379;BME280;32084;42.254;22.744;2023-05-16T06:36:08;94747.91;;;15.62;99.63
46379;BME280;32084;42.254;22.744;2023-05-16T06:38:34;94746.88;;;15.70;99.75
46379;BME280;32084;42.254;22.744;2023-05-16T06:41:00;94737.63;;;15.86;99.15
46379;BME280;32084;42.254;22.744;2023-05-16T06:43:26;94736.16;;;15.83;99.35
46379;BME280;32084;42.254;22.744;2023-05-16T06:45:52;94734.28;;;15.84;100.00
46379;BME280;32084;42.254;22.744;2023-05-16T06:48:19;94737.19;;;15.75;100.00
46379;BME280;32084;42.254;22.744;2023-05-16T06:50:48;94733.06;;;15.79;100.00
46379;BME280;32084;42.254;22.744;2023-05-16T06:53:17;94727.28;;;15.96;100.00
46379;BME280;32084;42.254;22.744;2023-05-16T06:55:43;94729.59;;;16.19;98.82
46379;BME280;32084;42.254;22.744;2023-05-16T06:58:09;94719.44;;;16.41;96.72
46379;BME280;32084;42.254;22.744;2023-05-16T07:00:35;94717.94;;;16.78;95.34
46379;BME280;32084;42.254;22.744;2023-05-16T07:03:01;94718.19;;;16.90;92.71
46379;BME280;32084;42.254;22.744;2023-05-16T07:05:28;94709.19;;;17.03;90.66
46379;BME280;32084;42.254;22.744;2023-05-16T07:07:54;94714.34;;;17.18;89.03
46379;BME280;32084;42.254;22.744;2023-05-16T07:10:20;94702.53;;;17.19;89.42
46379;BME280;32084;42.254;22.744;2023-05-16T07:12:46;94704.78;;;17.22;90.34
46379;BME280;32084;42.254;22.744;2023-05-16T07:15:13;94702.31;;;17.21;88.64
46379;BME280;32084;42.254;22.744;2023-05-16T07:17:39;94693.56;;;17.25;89.23
46379;BME280;32084;42.254;22.744;2023-05-16T07:20:05;94700.19;;;17.29;88.69
46379;BME280;32084;42.254;22.744;2023-05-16T07:22:32;94696.34;;;17.50;90.06
46379;BME280;32084;42.254;22.744;2023-05-16T07:24:58;94690.94;;;17.57;89.51
46379;BME280;32084;42.254;22.744;2023-05-16T07:27:26;94687.84;;;17.47;88.88
46379;BME280;32084;42.254;22.744;2023-05-16T07:29:52;94693.78;;;17.62;88.47
46379;BME280;32084;42.254;22.744;2023-05-16T07:32:18;94697.34;;;17.63;88.48
46379;BME280;32084;42.254;22.744;2023-05-16T07:34:45;94680.69;;;17.66;88.81
46379;BME280;32084;42.254;22.744;2023-05-16T07:37:11;94686.53;;;17.63;88.06
46379;BME280;32084;42.254;22.744;2023-05-16T07:39:40;94677.47;;;17.82;87.92
46379;BME280;32084;42.254;22.744;2023-05-16T07:42:07;94687.28;;;17.76;88.37
46379;BME280;32084;42.254;22.744;2023-05-16T07:44:33;94686.25;;;17.78;87.13
46379;BME280;32084;42.254;22.744;2023-05-16T07:47:00;94686.53;;;18.01;88.37
46379;BME280;32084;42.254;22.744;2023-05-16T07:49:28;94679.09;;;18.22;86.53
46379;BME280;32084;42.254;22.744;2023-05-16T07:51:54;94689.25;;;18.51;85.33
46379;BME280;32084;42.254;22.744;2023-05-16T07:54:20;94683.97;;;18.63;85.74
46379;BME280;32084;42.254;22.744;2023-05-16T07:56:46;94690.19;;;18.64;82.06
46379;BME280;32084;42.254;22.744;2023-05-16T07:59:12;94689.25;;;18.77;81.84
46379;BME280;32084;42.254;22.744;2023-05-16T08:01:38;94683.66;;;18.97;81.04
46379;BME280;32084;42.254;22.744;2023-05-16T08:04:05;94677.88;;;19.30;80.14
46379;BME280;32084;42.254;22.744;2023-05-16T08:06:31;94689.94;;;19.64;79.08
46379;BME280;32084;42.254;22.744;2023-05-16T08:08:57;94688.16;;;19.40;76.54
46379;BME280;32084;42.254;22.744;2023-05-16T08:11:23;94689.91;;;18.97;79.45
46379;BME280;32084;42.254;22.744;2023-05-16T08:13:49;94681.53;;;18.80;79.55
46379;BME280;32084;42.254;22.744;2023-05-16T08:16:15;94684.72;;;18.70;81.56
46379;BME280;32084;42.254;22.744;2023-05-16T08:18:42;94686.75;;;18.75;82.49
46379;BME280;32084;42.254;22.744;2023-05-16T08:21:08;94683.94;;;18.88;82.16
46379;BME280;32084;42.254;22.744;2023-05-16T08:23:34;94674.91;;;18.95;81.21
46379;BME280;32084;42.254;22.744;2023-05-16T08:26:01;94682.31;;;19.24;79.58
46379;BME280;32084;42.254;22.744;2023-05-16T08:28:28;94677.72;;;19.25;78.49
46379;BME280;32084;42.254;22.744;2023-05-16T08:30:54;94672.22;;;19.13;79.02
46379;BME280;32084;42.254;22.744;2023-05-16T08:33:20;94668.53;;;19.07;80.26
46379;BME280;32084;42.254;22.744;2023-05-16T08:35:46;94661.91;;;19.03;80.24
46379;BME280;32084;42.254;22.744;2023-05-16T08:38:14;94668.81;;;18.81;78.95
46379;BME280;32084;42.254;22.744;2023-05-16T08:40:41;94659.88;;;18.80;81.27
46379;BME280;32084;42.254;22.744;2023-05-16T08:43:07;94658.38;;;18.84;77.88
46379;BME280;32084;42.254;22.744;2023-05-16T08:45:33;94658.97;;;18.86;80.96
46379;BME280;32084;42.254;22.744;2023-05-16T08:48:00;94664.84;;;19.02;80.31
46379;BME280;32084;42.254;22.744;2023-05-16T08:50:29;94660.84;;;19.23;80.65
46379;BME280;32084;42.254;22.744;2023-05-16T08:52:56;94666.34;;;19.35;79.48
46379;BME280;32084;42.254;22.744;2023-05-16T08:55:23;94662.34;;;19.37;79.07
46379;BME280;32084;42.254;22.744;2023-05-16T08:57:49;94662.47;;;19.61;78.66
46379;BME280;32084;42.254;22.744;2023-05-16T09:00:16;94656.28;;;19.72;76.09
46379;BME280;32084;42.254;22.744;2023-05-16T09:02:44;94665.72;;;20.00;78.11
46379;BME280;32084;42.254;22.744;2023-05-16T09:05:13;94668.91;;;20.20;77.14
46379;BME280;32084;42.254;22.744;2023-05-16T09:07:43;94669.94;;;20.50;76.81
46379;BME280;32084;42.254;22.744;2023-05-16T09:10:09;94663.84;;;20.66;74.46
46379;BME280;32084;42.254;22.744;2023-05-16T09:12:36;94667.38;;;20.78;73.56
46379;BME280;32084;42.254;22.744;2023-05-16T09:15:03;94658.72;;;20.58;76.47
46379;BME280;32084;42.254;22.744;2023-05-16T09:17:37;94657.88;;;20.34;76.95
46379;BME280;32084;42.254;22.744;2023-05-16T09:20:19;94649.84;;;20.39;77.78
46379;BME280;32084;42.254;22.744;2023-05-16T09:22:51;94654.22;;;20.28;74.39
46379;BME280;32084;42.254;22.744;2023-05-16T09:25:18;94647.75;;;20.53;74.48
46379;BME280;32084;42.254;22.744;2023-05-16T09:27:45;94651.91;;;20.67;74.47
46379;BME280;32084;42.254;22.744;2023-05-16T09:30:13;94647.63;;;20.83;73.84
46379;BME280;32084;42.254;22.744;2023-05-16T09:32:41;94645.84;;;21.12;72.84
46379;BME280;32084;42.254;22.744;2023-05-16T09:35:08;94627.88;;;21.11;71.91
46379;BME280;32084;42.254;22.744;2023-05-16T09:37:35;94619.56;;;21.30;70.29
46379;BME280;32084;42.254;22.744;2023-05-16T09:40:01;94619.63;;;21.06;70.24
46379;BME280;32084;42.254;22.744;2023-05-16T09:42:27;94615.44;;;21.27;69.22
46379;BME280;32084;42.254;22.744;2023-05-16T09:44:54;94606.53;;;21.32;71.85
46379;BME280;32084;42.254;22.744;2023-05-16T09:47:21;94602.63;;;21.39;72.47
46379;BME280;32084;42.254;22.744;2023-05-16T09:49:50;94596.50;;;21.44;73.76
46379;BME280;32084;42.254;22.744;2023-05-16T09:52:17;94602.63;;;21.39;71.16
46379;BME280;32084;42.254;22.744;2023-05-16T09:54:44;94610.84;;;21.16;71.58
46379;BME280;32084;42.254;22.744;2023-05-16T09:57:11;94608.47;;;21.19;72.84
46379;BME280;32084;42.254;22.744;2023-05-16T09:59:38;94604.88;;;20.90;72.41
46379;BME280;32084;42.254;22.744;2023-05-16T10:02:05;94608.09;;;20.87;74.00
46379;BME280;32084;42.254;22.744;2023-05-16T10:04:34;94611.81;;;21.10;72.58
46379;BME280;32084;42.254;22.744;2023-05-16T10:07:02;94617.56;;;21.13;72.71
46379;BME280;32084;42.254;22.744;2023-05-16T10:09:32;94615.44;;;21.27;72.17
46379;BME280;32084;42.254;22.744;2023-05-16T10:11:59;94616.56;;;21.43;72.65
46379;BME280;32084;42.254;22.744;2023-05-16T10:14:29;94610.69;;;21.34;72.23
46379;BME280;32084;42.254;22.744;2023-05-16T10:16:55;94604.00;;;21.13;72.20
46379;BME280;32084;42.254;22.744;2023-05-16T10:19:22;94604.75;;;21.37;72.08
46379;BME280;32084;42.254;22.744;2023-05-16T10:21:51;94596.09;;;21.52;72.57
46379;BME280;32084;42.254;22.744;2023-05-16T10:24:21;94590.56;;;21.47;71.09
46379;BME280;32084;42.254;22.744;2023-05-16T10:26:49;94589.03;;;21.68;72.36
46379;BME280;32084;42.254;22.744;2023-05-16T10:29:17;94590.38;;;21.66;68.34
46379;BME280;32084;42.254;22.744;2023-05-16T10:31:43;94589.50;;;21.48;69.70
46379;BME280;32084;42.254;22.744;2023-05-16T10:34:09;94592.59;;;21.28;70.06
46379;BME280;32084;42.254;22.744;2023-05-16T10:36:35;94600.69;;;21.11;69.23
46379;BME280;32084;42.254;22.744;2023-05-16T10:39:01;94596.19;;;21.17;69.90
46379;BME280;32084;42.254;22.744;2023-05-16T10:41:28;94597.38;;;21.09;69.98
46379;BME280;32084;42.254;22.744;2023-05-16T10:43:55;94597.25;;;21.16;71.17
46379;BME280;32084;42.254;22.744;2023-05-16T10:46:22;94601.72;;;21.22;72.87
46379;BME280;32084;42.254;22.744;2023-05-16T10:48:48;94594.50;;;21.28;73.78
46379;BME280;32084;42.254;22.744;2023-05-16T10:53:46;94595.53;;;21.38;75.96
46379;BME280;32084;42.254;22.744;2023-05-16T10:56:12;94598.94;;;21.45;76.57
46379;BME280;32084;42.254;22.744;2023-05-16T10:58:41;94604.66;;;21.44;77.32
46379;BME280;32084;42.254;22.744;2023-05-16T11:01:21;94618.50;;;21.31;78.77
46379;BME280;32084;42.254;22.744;2023-05-16T11:14:05;94616.47;;;20.62;85.26
46379;BME280;32084;42.254;22.744;2023-05-16T11:16:32;94605.72;;;20.67;86.12
46379;BME280;32084;42.254;22.744;2023-05-16T11:19:08;94594.88;;;20.67;87.15
46379;BME280;32084;42.254;22.744;2023-05-16T11:24:28;94597.09;;;20.58;83.72
46379;BME280;32084;42.254;22.744;2023-05-16T11:26:55;94595.06;;;20.54;85.37
46379;BME280;32084;42.254;22.744;2023-05-16T11:29:21;94595.88;;;20.54;84.76
46379;BME280;32084;42.254;22.744;2023-05-16T11:31:47;94588.25;;;20.63;85.92
46379;BME280;32084;42.254;22.744;2023-05-16T11:34:14;94563.56;;;20.53;84.79
46379;BME280;32084;42.254;22.744;2023-05-16T11:36:40;94574.53;;;20.81;82.70
46379;BME280;32084;42.254;22.744;2023-05-16T11:39:07;94562.56;;;21.06;84.87
46379;BME280;32084;42.254;22.744;2023-05-16T11:41:37;94566.16;;;21.23;83.46
46379;BME280;32084;42.254;22.744;2023-05-16T11:44:03;94561.88;;;21.28;82.50
46379;BME280;32084;42.254;22.744;2023-05-16T11:46:32;94558.94;;;21.29;80.23
46379;BME280;32084;42.254;22.744;2023-05-16T11:48:58;94561.72;;;21.46;78.30
46379;BME280;32084;42.254;22.744;2023-05-16T11:51:24;94570.31;;;21.43;78.73
46379;BME280;32084;42.254;22.744;2023-05-16T11:53:50;94558.38;;;21.56;79.27
46379;BME280;32084;42.254;22.744;2023-05-16T11:56:16;94555.53;;;21.51;80.09
46379;BME280;32084;42.254;22.744;2023-05-16T11:58:43;94549.88;;;21.52;81.70
46379;BME280;32084;42.254;22.744;2023-05-16T12:01:10;94549.63;;;21.54;79.35
46379;BME280;32084;42.254;22.744;2023-05-16T12:03:36;94553.53;;;21.75;81.83
46379;BME280;32084;42.254;22.744;2023-05-16T12:06:03;94557.72;;;21.66;80.43
46379;BME280;32084;42.254;22.744;2023-05-16T12:08:29;94566.06;;;21.76;80.98
46379;BME280;32084;42.254;22.744;2023-05-16T12:10:56;94584.47;;;21.86;79.52
46379;BME280;32084;42.254;22.744;2023-05-16T12:13:22;94598.31;;;21.84;72.65
46379;BME280;32084;42.254;22.744;2023-05-16T12:15:49;94609.69;;;21.81;75.01
46379;BME280;32084;42.254;22.744;2023-05-16T12:18:16;94608.78;;;21.75;74.69
46379;BME280;32084;42.254;22.744;2023-05-16T12:20:42;94589.72;;;21.75;73.85
46379;BME280;32084;42.254;22.744;2023-05-16T12:23:09;94600.47;;;21.82;76.04
46379;BME280;32084;42.254;22.744;2023-05-16T12:25:36;94606.28;;;22.02;78.57
46379;BME280;32084;42.254;22.744;2023-05-16T12:28:06;94601.47;;;22.10;76.34
46379;BME280;32084;42.254;22.744;2023-05-16T12:30:33;94594.06;;;22.05;75.36
46379;BME280;32084;42.254;22.744;2023-05-16T12:33:00;94602.94;;;21.83;73.49
46379;BME280;32084;42.254;22.744;2023-05-16T12:35:29;94594.00;;;21.71;71.27
46379;BME280;32084;42.254;22.744;2023-05-16T12:37:56;94601.13;;;21.72;72.91
46379;BME280;32084;42.254;22.744;2023-05-16T12:40:22;94604.25;;;21.81;72.62
46379;BME280;32084;42.254;22.744;2023-05-16T12:42:49;94605.25;;;21.92;70.09
46379;BME280;32084;42.254;22.744;2023-05-16T12:45:16;94607.34;;;22.01;72.27
46379;BME280;32084;42.254;22.744;2023-05-16T12:47:43;94611.44;;;22.04;72.08
46379;BME280;32084;42.254;22.744;2023-05-16T12:50:13;94624.06;;;21.93;72.17
46379;BME280;32084;42.254;22.744;2023-05-16T12:52:52;94616.56;;;21.83;72.95
46379;BME280;32084;42.254;22.744;2023-05-16T12:55:19;94627.09;;;21.80;73.24
46379;BME280;32084;42.254;22.744;2023-05-16T12:57:46;94622.81;;;21.84;72.16
46379;BME280;32084;42.254;22.744;2023-05-16T13:00:13;94628.63;;;21.76;67.47
46379;BME280;32084;42.254;22.744;2023-05-16T13:02:39;94626.19;;;21.74;70.57
46379;BME280;32084;42.254;22.744;2023-05-16T13:05:06;94616.59;;;21.72;72.30
46379;BME280;32084;42.254;22.744;2023-05-16T13:07:33;94631.59;;;21.45;68.73
46379;BME280;32084;42.254;22.744;2023-05-16T13:09:59;94633.72;;;21.32;69.77